EGPH/EDI METAR and TAF weather

Enter ICAO airport designator
Station Type Date Time Source
EGPH METAR 2020/11/25 22:50 UTC NOAA

EGPH 252250Z 24003KT 9999 OVC038 06/05 Q1016


Station Type Date Time Source
EGPH Decoded METAR 2020/11/25 22:50 UTC NOAA

Edinburgh Airport, United Kingdom (EGPH) 55-57N 003-21W 0M
Nov 25, 2020 - 05:50 PM EST / 2020.11.25 2250 UTC
Wind: from the WSW (240 degrees) at 3 MPH (3 KT):0
Visibility: greater than 7 mile(s):0
Sky conditions: overcast
Temperature: 42 F (6 C)
Dew Point: 41 F (5 C)
Relative Humidity: 93%
Pressure (altimeter): 30.00 in. Hg (1016 hPa)
ob: EGPH 252250Z 24003KT 9999 OVC038 06/05 Q1016
cycle: 23

Station Type Date Time Source
EGPH TAF 2020/11/25 18:09 UTC NOAA

TAF EGPH 251700Z 2518/2618 24007KT 9999 FEW020
TEMPO 2523/2611 4000 BR PROB30 2603/2611 0300 FG FZFG BKN001 PROB30
TEMPO 2611/2618 4000 BR BKN005

Example: see airport list